BGY weather

Il Caravaggio International Airport
Bergamo, Lombardy, Italy

Public forecast

Using degrees Celsius for public forecast. Weather courtesy of forecast.io.

Current aviation weather report (METAR) for Il Caravaggio International Airport

Retrieved 2019/10/19 01:20 UTC (28 minutes ago):

LIME 190120Z 05004KT 6000 RA SCT020 BKN035 14/13 Q1016 NOSIG

Aviation forecast (TAF) for Il Caravaggio International Airport

Retrieved 2019-10-19 00:21 UTC (1 hour ago):

TAF LIME 182300Z 1900/1924 VRB05KT 7000 RA SCT020 BKN050 TEMPO 1900/1918 4000 SHRA